createdAt,value
2023-04-08T00:02:06.773Z,11.83
2023-04-08T00:04:36.448Z,10.73
2023-04-08T00:07:06.080Z,10.50
2023-04-08T00:09:35.857Z,13.70
2023-04-08T00:12:08.339Z,10.53
2023-04-08T00:14:38.596Z,10.00
2023-04-08T00:17:08.159Z,10.30
2023-04-08T00:19:37.713Z,9.73
2023-04-08T00:22:07.251Z,15.47
2023-04-08T00:24:36.897Z,15.57
2023-04-08T00:27:09.105Z,9.87
2023-04-08T00:29:38.666Z,9.97
2023-04-08T00:32:08.154Z,10.50
2023-04-08T00:34:38.638Z,9.90
2023-04-08T00:37:08.152Z,9.80
2023-04-08T00:39:37.745Z,9.77
2023-04-08T00:42:09.930Z,12.93
2023-04-08T00:44:39.503Z,10.23
2023-04-08T00:47:09.176Z,14.63
2023-04-08T00:49:38.748Z,10.23
2023-04-08T00:52:08.613Z,9.40
2023-04-08T00:54:39.548Z,13.47
2023-04-08T00:57:11.626Z,13.73
2023-04-08T00:59:41.233Z,19.63
2023-04-08T01:02:17.764Z,12.80
2023-04-08T01:04:53.454Z,16.50
2023-04-08T01:07:26.206Z,9.43
2023-04-08T01:09:58.262Z,11.40
2023-04-08T01:12:32.735Z,9.37
2023-04-08T01:15:06.454Z,10.10
2023-04-08T01:17:37.279Z,11.13
2023-04-08T01:20:08.567Z,12.57
2023-04-08T01:22:47.001Z,13.10
2023-04-08T01:25:20.580Z,11.97
2023-04-08T01:27:52.818Z,12.83
2023-04-08T01:30:23.439Z,10.43
2023-04-08T01:32:53.490Z,14.50
2023-04-08T01:35:23.456Z,11.77
2023-04-08T01:37:54.493Z,10.47
2023-04-08T01:40:24.170Z,13.33
2023-04-08T01:42:58.166Z,12.20
2023-04-08T01:45:28.203Z,10.60
2023-04-08T01:47:58.336Z,10.60
2023-04-08T01:50:28.328Z,12.87
2023-04-08T01:52:58.014Z,11.07
2023-04-08T01:55:28.056Z,10.27
2023-04-08T01:58:02.914Z,10.40
2023-04-08T02:00:33.341Z,10.27
2023-04-08T02:03:03.680Z,11.10
2023-04-08T02:05:33.326Z,10.17
2023-04-08T02:08:02.861Z,10.20
2023-04-08T02:10:32.415Z,15.37
2023-04-08T02:13:05.627Z,9.67
2023-04-08T02:15:37.940Z,10.67
2023-04-08T02:18:14.314Z,11.90
2023-04-08T02:20:46.850Z,13.70
2023-04-08T02:23:17.708Z,10.10
2023-04-08T02:25:48.294Z,10.50
2023-04-08T02:28:21.901Z,10.43
2023-04-08T02:30:53.957Z,10.03
2023-04-08T02:33:25.486Z,10.00
2023-04-08T02:35:56.190Z,11.43
2023-04-08T02:38:30.051Z,10.00
2023-04-08T02:40:59.909Z,11.57
2023-04-08T02:43:32.698Z,10.00
2023-04-08T02:46:04.108Z,11.40
2023-04-08T02:48:34.039Z,25.33
2023-04-08T02:51:03.678Z,19.37
2023-04-08T02:53:33.163Z,12.43
2023-04-08T02:56:02.637Z,10.50
2023-04-08T02:58:34.770Z,14.87
2023-04-08T03:01:04.296Z,17.87
2023-04-08T03:03:33.929Z,14.80
2023-04-08T03:06:03.434Z,13.70
2023-04-08T03:08:33.891Z,20.40
2023-04-08T03:11:03.410Z,18.67
2023-04-08T03:13:35.708Z,17.20
2023-04-08T03:16:05.201Z,10.40
2023-04-08T03:18:34.714Z,13.77
2023-04-08T03:21:04.378Z,11.93
2023-04-08T03:23:33.868Z,15.07
2023-04-08T03:26:03.478Z,14.90
2023-04-08T03:28:35.782Z,13.00
2023-04-08T03:31:06.509Z,14.90
2023-04-08T03:33:36.008Z,13.40
2023-04-08T03:36:05.752Z,14.30
2023-04-08T03:38:35.467Z,16.97
2023-04-08T03:41:05.007Z,13.33
2023-04-08T03:43:38.117Z,13.70
2023-04-08T03:46:07.834Z,16.20
2023-04-08T03:48:37.335Z,13.80
2023-04-08T03:51:06.833Z,16.40
2023-04-08T03:53:36.338Z,14.60
2023-04-08T03:56:05.894Z,15.57
2023-04-08T03:58:37.966Z,13.47
2023-04-08T04:01:07.980Z,16.27
2023-04-08T04:03:37.618Z,16.40
2023-04-08T04:06:07.219Z,15.23
2023-04-08T04:08:36.719Z,14.33
2023-04-08T04:11:06.279Z,15.83
2023-04-08T04:13:38.375Z,14.57
2023-04-08T04:16:08.547Z,15.17
2023-04-08T04:18:38.174Z,15.57
2023-04-08T04:21:09.196Z,16.67
2023-04-08T04:23:38.761Z,15.00
2023-04-08T04:26:11.395Z,15.93
2023-04-08T04:28:43.541Z,14.90
2023-04-08T04:31:21.588Z,15.70
2023-04-08T04:33:51.735Z,14.10
2023-04-08T04:36:21.586Z,16.27
2023-04-08T04:38:52.801Z,15.63
2023-04-08T04:41:22.559Z,17.67
2023-04-08T04:43:54.688Z,15.23
2023-04-08T04:46:24.278Z,15.53
2023-04-08T04:48:53.852Z,16.60
2023-04-08T04:51:23.355Z,14.93
2023-04-08T04:53:52.916Z,18.50
2023-04-08T04:56:22.405Z,17.13
2023-04-08T04:58:54.517Z,16.20
2023-04-08T05:01:24.031Z,14.67
2023-04-08T05:03:53.527Z,16.00
2023-04-08T05:06:23.057Z,14.83
2023-04-08T05:08:52.704Z,15.93
2023-04-08T05:11:22.200Z,16.50
2023-04-08T05:13:54.296Z,19.33
2023-04-08T05:16:23.903Z,16.67
2023-04-08T05:18:53.642Z,18.07
2023-04-08T05:21:23.864Z,17.37
2023-04-08T05:23:54.061Z,19.53
2023-04-08T05:26:24.483Z,18.00
2023-04-08T05:28:56.536Z,16.70
2023-04-08T05:31:26.039Z,16.67
2023-04-08T05:33:55.585Z,17.60
2023-04-08T05:36:25.141Z,18.50
2023-04-08T05:38:54.687Z,17.87
2023-04-08T05:41:24.223Z,17.00
2023-04-08T05:43:56.329Z,15.67
2023-04-08T05:46:25.864Z,15.47
2023-04-08T05:48:55.345Z,16.60
2023-04-08T05:51:24.835Z,13.43
2023-04-08T05:53:54.545Z,16.33
2023-04-08T05:56:24.043Z,20.80
2023-04-08T05:58:56.229Z,17.53
2023-04-08T06:01:25.928Z,18.17
2023-04-08T06:03:58.760Z,17.10
2023-04-08T06:06:28.646Z,17.23
2023-04-08T06:08:58.211Z,16.53
2023-04-08T06:11:27.827Z,17.10
2023-04-08T06:13:59.909Z,17.20
2023-04-08T06:16:29.506Z,17.87
2023-04-08T06:18:59.133Z,15.63
2023-04-08T06:21:28.643Z,16.43
2023-04-08T06:23:58.133Z,15.67
2023-04-08T06:26:27.956Z,16.60
2023-04-08T06:29:00.764Z,15.50
2023-04-08T06:31:30.539Z,14.83
2023-04-08T06:34:00.335Z,12.93
2023-04-08T06:36:29.940Z,13.50
2023-04-08T06:38:59.430Z,13.90
2023-04-08T06:41:28.984Z,13.00
2023-04-08T06:44:02.541Z,13.23
2023-04-08T06:46:32.011Z,12.73
2023-04-08T06:49:01.511Z,13.67
2023-04-08T06:51:31.617Z,11.87
2023-04-08T06:54:01.462Z,13.03
2023-04-08T06:56:30.988Z,14.20
2023-04-08T06:59:03.615Z,12.83
2023-04-08T07:01:34.704Z,13.83
2023-04-08T07:04:04.611Z,13.27
2023-04-08T07:06:34.222Z,13.83
2023-04-08T07:09:04.853Z,13.13
2023-04-08T07:11:34.627Z,12.53
2023-04-08T07:14:06.907Z,13.87
2023-04-08T07:16:36.471Z,15.47
2023-04-08T07:19:06.151Z,13.50
2023-04-08T07:21:35.709Z,16.57
2023-04-08T07:24:05.212Z,13.00
2023-04-08T07:26:34.720Z,17.40
2023-04-08T07:29:06.980Z,19.27
2023-04-08T07:31:36.487Z,28.07
2023-04-08T07:34:06.062Z,33.23
2023-04-08T07:36:35.887Z,30.50
2023-04-08T07:39:05.540Z,22.43
2023-04-08T07:41:35.026Z,21.37
2023-04-08T07:44:08.002Z,10.20
2023-04-08T07:46:41.090Z,11.37
2023-04-08T07:49:10.761Z,11.77
2023-04-08T07:51:40.576Z,11.80
2023-04-08T07:54:10.656Z,12.27
2023-04-08T07:56:40.690Z,11.07
2023-04-08T07:59:13.108Z,11.33
2023-04-08T08:01:43.111Z,11.57
2023-04-08T08:04:13.896Z,11.33
2023-04-08T08:06:43.582Z,16.67
2023-04-08T08:09:13.113Z,14.93
2023-04-08T08:11:42.630Z,17.40
2023-04-08T08:14:14.745Z,13.00
2023-04-08T08:16:44.805Z,14.47
2023-04-08T08:19:14.692Z,12.20
2023-04-08T08:21:44.348Z,13.30
2023-04-08T08:24:13.814Z,15.73
2023-04-08T08:26:45.215Z,10.80
2023-04-08T08:29:17.297Z,11.87
2023-04-08T08:31:48.628Z,12.60
2023-04-08T08:34:18.227Z,19.30
2023-04-08T08:36:50.498Z,13.30
2023-04-08T08:39:22.593Z,13.97
2023-04-08T08:41:52.072Z,13.20
2023-04-08T08:44:24.238Z,13.20
2023-04-08T08:46:53.838Z,14.47
2023-04-08T08:49:26.749Z,13.10
2023-04-08T08:51:57.840Z,12.53
2023-04-08T08:54:27.373Z,12.47
2023-04-08T08:56:56.932Z,15.50
2023-04-08T08:59:29.158Z,12.43
2023-04-08T09:01:58.777Z,12.00
2023-04-08T09:04:28.760Z,10.70
2023-04-08T09:07:13.936Z,11.27
2023-04-08T09:09:51.951Z,12.63
2023-04-08T09:12:21.802Z,12.17
2023-04-08T09:14:54.413Z,12.50
2023-04-08T09:17:35.273Z,13.57
2023-04-08T09:20:11.876Z,15.57
2023-04-08T09:22:59.974Z,11.77
2023-04-08T09:25:30.818Z,18.20
2023-04-08T09:28:00.373Z,13.20
2023-04-08T09:30:34.094Z,14.83
2023-04-08T09:33:07.454Z,13.67
2023-04-08T09:35:37.064Z,13.13
2023-04-08T09:38:07.086Z,15.70
2023-04-08T09:40:38.002Z,15.37
2023-04-08T09:43:08.319Z,15.33
2023-04-08T09:45:43.756Z,14.50
2023-04-08T09:48:16.618Z,16.00
2023-04-08T09:50:48.155Z,14.17
2023-04-08T09:53:23.355Z,14.60
2023-04-08T09:55:54.140Z,15.00
2023-04-08T09:58:36.590Z,19.43
2023-04-08T10:01:10.464Z,15.77
2023-04-08T10:03:43.402Z,15.60
2023-04-08T10:06:13.492Z,14.90
2023-04-08T10:08:46.919Z,16.47
2023-04-08T10:11:19.944Z,26.83
2023-04-08T10:13:49.689Z,14.17
2023-04-08T10:16:27.758Z,15.03
2023-04-08T10:18:58.677Z,12.67
2023-04-08T10:21:38.085Z,15.23
2023-04-08T10:24:11.882Z,15.00
2023-04-08T10:26:43.191Z,14.57
2023-04-08T10:29:46.564Z,15.30
2023-04-08T10:32:33.972Z,12.50
2023-04-08T10:35:04.469Z,13.83
2023-04-08T10:37:34.030Z,15.13
2023-04-08T10:40:03.588Z,14.67
2023-04-08T10:42:33.097Z,14.70
2023-04-08T10:45:05.665Z,14.47
2023-04-08T10:47:37.789Z,13.13
2023-04-08T10:50:15.752Z,14.13
2023-04-08T10:52:50.034Z,14.83
2023-04-08T10:55:19.697Z,13.67
2023-04-08T10:57:49.241Z,15.50
2023-04-08T11:00:22.113Z,13.73
2023-04-08T11:02:54.802Z,13.60
2023-04-08T11:05:25.448Z,14.90
2023-04-08T11:07:55.967Z,19.27
2023-04-08T11:10:25.574Z,22.20
2023-04-08T11:12:55.175Z,17.63
2023-04-08T11:15:25.248Z,18.00
2023-04-08T11:17:57.449Z,16.33
2023-04-08T11:20:28.028Z,18.53
2023-04-08T11:22:57.866Z,16.87
2023-04-08T11:25:27.454Z,13.40
2023-04-08T11:27:57.119Z,20.93
2023-04-08T11:30:27.024Z,20.00
2023-04-08T11:32:59.158Z,16.77
2023-04-08T11:35:31.725Z,14.20
2023-04-08T11:38:01.537Z,14.07
2023-04-08T11:40:31.584Z,15.20
2023-04-08T11:43:01.301Z,14.47
2023-04-08T11:45:32.041Z,16.47
2023-04-08T11:48:12.048Z,19.00
2023-04-08T11:50:41.900Z,16.60
2023-04-08T11:53:19.808Z,14.80
2023-04-08T11:55:49.751Z,17.00
2023-04-08T11:58:19.509Z,16.50
2023-04-08T12:00:51.747Z,13.80
2023-04-08T12:03:23.993Z,14.73
2023-04-08T12:05:54.867Z,15.50
2023-04-08T12:08:24.725Z,15.60
2023-04-08T12:10:54.276Z,15.63
2023-04-08T12:13:23.804Z,15.70
2023-04-08T12:15:53.381Z,16.07
2023-04-08T12:18:25.926Z,16.50
2023-04-08T12:20:56.145Z,14.63
2023-04-08T12:23:25.605Z,15.20
2023-04-08T12:25:55.107Z,14.83
2023-04-08T12:28:24.618Z,15.60
2023-04-08T12:30:54.143Z,14.10
2023-04-08T12:33:26.203Z,14.10
2023-04-08T12:35:56.225Z,13.87
2023-04-08T12:38:25.774Z,12.17
2023-04-08T12:40:55.576Z,15.67
2023-04-08T12:43:25.205Z,15.00
2023-04-08T12:45:54.812Z,21.50
2023-04-08T12:48:28.089Z,46.23
2023-04-08T12:50:58.919Z,32.80
2023-04-08T12:53:28.419Z,21.93
2023-04-08T12:55:58.199Z,26.03
2023-04-08T12:58:27.936Z,19.37
2023-04-08T13:00:57.815Z,15.77
2023-04-08T13:03:32.113Z,15.50
2023-04-08T13:06:01.928Z,15.70
2023-04-08T13:08:32.029Z,14.80
2023-04-08T13:11:01.587Z,13.87
2023-04-08T13:13:31.054Z,16.80
2023-04-08T13:16:00.683Z,16.47
2023-04-08T13:18:32.894Z,13.90
2023-04-08T13:21:02.537Z,17.70
2023-04-08T13:23:32.057Z,17.10
2023-04-08T13:26:01.782Z,16.57
2023-04-08T13:28:31.269Z,19.80
2023-04-08T13:31:00.780Z,16.20
2023-04-08T13:33:32.870Z,19.67
2023-04-08T13:36:02.408Z,15.80
2023-04-08T13:38:32.531Z,20.30
2023-04-08T13:41:02.077Z,21.80
2023-04-08T13:43:31.617Z,19.87
2023-04-08T13:46:01.269Z,16.13
2023-04-08T13:48:33.361Z,15.53
2023-04-08T13:51:02.906Z,17.83
2023-04-08T13:53:32.423Z,18.77
2023-04-08T13:56:02.151Z,18.03
2023-04-08T13:58:31.676Z,17.03
2023-04-08T14:01:01.219Z,18.80
2023-04-08T14:03:33.342Z,17.30
2023-04-08T14:06:02.857Z,16.33
2023-04-08T14:08:32.386Z,15.20
2023-04-08T14:11:01.994Z,15.30
2023-04-08T14:13:32.655Z,17.63
2023-04-08T14:16:02.478Z,17.60
2023-04-08T14:18:34.544Z,16.00
2023-04-08T14:21:04.270Z,16.90
2023-04-08T14:23:33.805Z,15.30
2023-04-08T14:26:03.414Z,16.13
2023-04-08T14:28:32.974Z,16.93
2023-04-08T14:31:04.274Z,18.60
2023-04-08T14:33:36.417Z,18.50
2023-04-08T14:36:06.325Z,23.17
2023-04-08T14:38:35.981Z,20.60
2023-04-08T14:41:05.508Z,24.50
2023-04-08T14:43:37.562Z,22.83
2023-04-08T14:46:07.262Z,22.30
2023-04-08T14:48:39.380Z,22.43
2023-04-08T14:51:09.101Z,17.60
2023-04-08T14:53:38.601Z,20.47
2023-04-08T14:56:08.912Z,14.67
2023-04-08T14:58:38.624Z,19.10
2023-04-08T15:01:08.206Z,14.40
2023-04-08T15:03:40.421Z,18.27
2023-04-08T15:06:10.011Z,19.73
2023-04-08T15:08:39.742Z,15.50
2023-04-08T15:11:09.512Z,18.17
2023-04-08T15:13:39.220Z,14.20
2023-04-08T15:16:08.991Z,14.70
2023-04-08T15:18:41.150Z,14.60
2023-04-08T15:21:10.640Z,20.10
2023-04-08T15:23:42.185Z,16.10
2023-04-08T15:26:12.088Z,20.67
2023-04-08T15:28:41.687Z,15.20
2023-04-08T15:31:11.860Z,19.10
2023-04-08T15:33:47.056Z,18.20
2023-04-08T15:36:19.757Z,16.30
2023-04-08T15:38:50.114Z,15.67
2023-04-08T15:41:21.508Z,17.40
2023-04-08T15:43:51.373Z,15.70
2023-04-08T15:46:21.433Z,16.33
2023-04-08T15:48:54.522Z,18.03
2023-04-08T15:51:24.346Z,16.40
2023-04-08T15:53:53.886Z,18.67
2023-04-08T15:56:23.634Z,16.40
2023-04-08T15:58:53.291Z,19.10
2023-04-08T16:01:23.019Z,27.00
2023-04-08T16:03:55.212Z,21.43
2023-04-08T16:06:25.055Z,18.83
2023-04-08T16:08:54.701Z,21.63
2023-04-08T16:11:26.141Z,25.37
2023-04-08T16:13:56.007Z,22.70
2023-04-08T16:16:25.768Z,24.67
2023-04-08T16:18:58.615Z,20.03
2023-04-08T16:21:28.187Z,20.80
2023-04-08T16:23:57.651Z,19.60
2023-04-08T16:26:27.397Z,25.80
2023-04-08T16:28:57.092Z,24.63
2023-04-08T16:31:26.748Z,21.60
2023-04-08T16:33:59.161Z,20.50
2023-04-08T16:36:28.709Z,19.00
2023-04-08T16:38:58.232Z,26.90
2023-04-08T16:41:27.853Z,24.93
2023-04-08T16:43:57.955Z,32.23
2023-04-08T16:46:27.436Z,21.03
2023-04-08T16:48:59.576Z,20.07
2023-04-08T16:51:29.099Z,24.97
2023-04-08T16:53:59.410Z,18.83
2023-04-08T16:56:29.487Z,21.63
2023-04-08T16:58:59.261Z,20.90
2023-04-08T17:01:28.884Z,22.00
2023-04-08T17:04:01.145Z,21.60
2023-04-08T17:06:31.388Z,21.30
2023-04-08T17:09:01.028Z,23.33
2023-04-08T17:11:30.601Z,22.33
2023-04-08T17:14:00.578Z,23.23
2023-04-08T17:16:30.079Z,21.50
2023-04-08T17:19:02.441Z,23.20
2023-04-08T17:21:32.682Z,22.60
2023-04-08T17:24:02.170Z,23.90
2023-04-08T17:26:31.702Z,21.77
2023-04-08T17:29:01.199Z,50.90
2023-04-08T17:31:31.740Z,34.10
2023-04-08T17:34:03.818Z,22.63
2023-04-08T17:36:33.291Z,20.60
2023-04-08T17:39:02.898Z,22.27
2023-04-08T17:41:39.599Z,21.27
2023-04-08T17:44:09.567Z,21.17
2023-04-08T17:46:39.335Z,23.93
2023-04-08T17:49:12.941Z,27.37
2023-04-08T17:51:42.469Z,29.47
2023-04-08T17:54:12.431Z,25.70
2023-04-08T17:56:44.467Z,26.17
2023-04-08T17:59:14.650Z,26.30
2023-04-08T18:01:44.364Z,32.17
2023-04-08T18:04:17.079Z,30.00
2023-04-08T18:06:46.639Z,27.43
2023-04-08T18:09:16.167Z,30.37
2023-04-08T18:11:45.912Z,31.23
2023-04-08T18:14:15.386Z,34.50
2023-04-08T18:16:45.026Z,37.80
2023-04-08T18:19:17.439Z,36.20
2023-04-08T18:21:47.098Z,34.17
2023-04-08T18:24:16.656Z,37.70
2023-04-08T18:26:51.724Z,39.03
2023-04-08T18:29:23.915Z,41.50
2023-04-08T18:31:53.576Z,44.33
2023-04-08T18:34:26.850Z,42.20
2023-04-08T18:36:56.396Z,41.00
2023-04-08T18:39:26.278Z,41.33
2023-04-08T18:41:56.111Z,37.70
2023-04-08T18:44:25.962Z,38.60
2023-04-08T18:46:56.523Z,39.37
2023-04-08T18:49:31.008Z,45.03
2023-04-08T18:52:03.426Z,46.10
2023-04-08T18:54:33.224Z,52.67
2023-04-08T18:57:02.947Z,46.53
2023-04-08T18:59:33.072Z,49.17
2023-04-08T19:02:02.892Z,50.53
2023-04-08T19:04:35.137Z,53.67
2023-04-08T19:07:04.709Z,54.33
2023-04-08T19:09:34.304Z,54.30
2023-04-08T19:12:04.473Z,53.60
2023-04-08T19:14:34.053Z,53.57
2023-04-08T19:17:03.838Z,54.23
2023-04-08T19:19:36.226Z,52.73
2023-04-08T19:22:06.218Z,52.50
2023-04-08T19:24:36.781Z,56.47
2023-04-08T19:27:06.671Z,50.37
2023-04-08T19:29:36.505Z,51.50
2023-04-08T19:32:06.160Z,57.77
2023-04-08T19:34:39.737Z,66.23
2023-04-08T19:37:09.420Z,61.27
2023-04-08T19:39:39.243Z,72.47
2023-04-08T19:42:09.449Z,65.27
2023-04-08T19:44:39.285Z,63.33
2023-04-08T19:47:08.758Z,55.40
2023-04-08T19:49:41.047Z,54.90
2023-04-08T19:52:11.004Z,52.73
2023-04-08T19:54:41.491Z,53.20
2023-04-08T19:57:12.428Z,53.03
2023-04-08T19:59:42.011Z,54.50
2023-04-08T20:02:11.671Z,53.07
2023-04-08T20:04:44.285Z,50.73
2023-04-08T20:07:13.912Z,54.00
2023-04-08T20:09:43.703Z,56.80
2023-04-08T20:12:13.220Z,57.20
2023-04-08T20:14:45.158Z,70.27
2023-04-08T20:17:15.600Z,55.37
2023-04-08T20:19:47.724Z,65.67
2023-04-08T20:22:17.648Z,63.50
2023-04-08T20:24:47.914Z,56.10
2023-04-08T20:27:18.875Z,61.37
2023-04-08T20:29:48.456Z,64.30
2023-04-08T20:32:17.920Z,60.57
2023-04-08T20:34:50.214Z,62.27
2023-04-08T20:37:19.837Z,63.80
2023-04-08T20:39:49.316Z,66.87
2023-04-08T20:42:18.780Z,63.40
2023-04-08T20:44:48.490Z,65.17
2023-04-08T20:47:17.961Z,71.07
2023-04-08T20:49:50.027Z,70.37
2023-04-08T20:52:19.498Z,69.93
2023-04-08T20:54:49.010Z,66.33
2023-04-08T20:57:18.513Z,68.27
2023-04-08T20:59:48.091Z,69.37
2023-04-08T21:02:18.205Z,68.50
2023-04-08T21:04:50.536Z,67.93
2023-04-08T21:07:20.049Z,68.67
2023-04-08T21:09:50.215Z,65.57
2023-04-08T21:12:19.939Z,58.63
2023-04-08T21:14:50.950Z,58.00
2023-04-08T21:17:20.776Z,57.70
2023-04-08T21:19:52.895Z,63.57
2023-04-08T21:22:22.396Z,63.80
2023-04-08T21:24:52.272Z,66.13
2023-04-08T21:27:21.952Z,63.10
2023-04-08T21:29:53.720Z,59.30
2023-04-08T21:32:23.861Z,57.97
2023-04-08T21:34:57.893Z,57.73
2023-04-08T21:37:27.582Z,57.40
2023-04-08T21:39:57.624Z,56.57
2023-04-08T21:42:27.808Z,57.40
2023-04-08T21:44:57.720Z,57.77
2023-04-08T21:47:27.283Z,57.70
2023-04-08T21:49:59.592Z,60.57
2023-04-08T21:52:29.327Z,60.00
2023-04-08T21:54:58.944Z,60.57
2023-04-08T21:57:28.606Z,63.30
2023-04-08T21:59:58.397Z,60.67
2023-04-08T22:02:28.037Z,58.13
2023-04-08T22:05:00.339Z,56.63
2023-04-08T22:07:29.897Z,54.73
2023-04-08T22:10:01.352Z,53.27
2023-04-08T22:12:31.376Z,53.83
2023-04-08T22:15:00.955Z,52.57
2023-04-08T22:17:30.826Z,52.73
2023-04-08T22:20:03.283Z,51.30
2023-04-08T22:22:32.826Z,50.87
2023-04-08T22:25:02.370Z,50.57
2023-04-08T22:27:31.892Z,48.53
2023-04-08T22:30:01.394Z,52.07
2023-04-08T22:32:30.981Z,49.50
2023-04-08T22:35:03.138Z,49.93
2023-04-08T22:37:33.319Z,50.30
2023-04-08T22:40:03.939Z,49.07
2023-04-08T22:42:33.438Z,49.33
2023-04-08T22:45:02.963Z,47.63
2023-04-08T22:47:32.517Z,46.43
2023-04-08T22:50:04.611Z,48.67
2023-04-08T22:52:34.154Z,48.77
2023-04-08T22:55:03.686Z,48.70
2023-04-08T22:57:33.270Z,50.20
2023-04-08T23:00:04.226Z,50.50
2023-04-08T23:02:34.112Z,50.60
2023-04-08T23:05:06.361Z,49.37
2023-04-08T23:07:35.973Z,50.17
2023-04-08T23:10:05.622Z,49.97
2023-04-08T23:12:35.305Z,49.07
2023-04-08T23:15:04.796Z,50.27
2023-04-08T23:17:34.320Z,50.60
2023-04-08T23:20:07.130Z,48.90
2023-04-08T23:22:36.670Z,48.43
2023-04-08T23:25:06.615Z,50.50
2023-04-08T23:27:36.376Z,53.57
2023-04-08T23:30:06.673Z,56.27
2023-04-08T23:32:36.589Z,56.57
2023-04-08T23:35:09.129Z,55.57
2023-04-08T23:37:38.637Z,56.67
2023-04-08T23:40:10.174Z,57.30
2023-04-08T23:42:39.694Z,54.87
2023-04-08T23:45:10.256Z,53.37
2023-04-08T23:47:39.811Z,52.97
2023-04-08T23:50:12.958Z,52.67
2023-04-08T23:52:42.515Z,52.87
2023-04-08T23:55:12.881Z,48.93
2023-04-08T23:57:44.613Z,48.43
